UAL1691 KORD-KMCO
Flight info
| Callsign | UAL1691 |
|---|---|
| Flight time | N/A |
| Altitude | 39000 |
| Route | DENNT DARCY DREGS DUMGE SCOTO SWAPP Q79 THRSR ZJAYX GRNCH5 |
| Aircraft | A21N/M-SDE2E3FGHIRWXY/LB1 |
Departure
| Time | 2026-04-30 22:45 |
|---|---|
| Airport | Chicago O'Hare International Airport (KORD) |
Arrival
| Time | N/A |
|---|---|
| Airport | Orlando International Airport (KMCO) |
| Time | Latitude | Longitude | Altitude | Speed | Heading |
|---|---|---|---|---|---|
| 2026-04-30 21:59 | 41.97865 | -87.90964 | 674 ft | 0 kts | 280° |
| 2026-04-30 22:04 | 41.97865 | -87.90963 | 674 ft | 0 kts | 280° |
| 2026-04-30 22:29 | 41.97848 | -87.90903 | 669 ft | 4 kts | 347° |
| 2026-04-30 22:29 | 41.97824 | -87.90904 | 671 ft | 4 kts | 9° |
| 2026-04-30 22:30 | 41.97815 | -87.90906 | 673 ft | 0 kts | 9° |
| 2026-04-30 22:33 | 41.97837 | -87.90901 | 673 ft | 12 kts | 9° |
| 2026-04-30 22:34 | 41.98281 | -87.90929 | 674 ft | 26 kts | 280° |
| 2026-04-30 22:35 | 41.98285 | -87.91378 | 676 ft | 28 kts | 270° |
| 2026-04-30 22:36 | 41.98282 | -87.92472 | 673 ft | 33 kts | 266° |
| 2026-04-30 22:36 | 41.98278 | -87.92762 | 674 ft | 29 kts | 270° |
| 2026-04-30 22:37 | 41.98278 | -87.92938 | 675 ft | 0 kts | 270° |
| 2026-04-30 22:37 | 41.98278 | -87.92939 | 675 ft | 1 kts | 270° |
| 2026-04-30 22:38 | 41.98297 | -87.93122 | 674 ft | 0 kts | 331° |
| 2026-04-30 22:41 | 41.98350 | -87.93128 | 676 ft | 14 kts | 20° |
| 2026-04-30 22:42 | 41.98389 | -87.93018 | 676 ft | 0 kts | 91° |
| 2026-04-30 22:43 | 41.98389 | -87.93015 | 676 ft | 7 kts | 91° |
| 2026-04-30 22:44 | 41.98397 | -87.91493 | 679 ft | 148 kts | 91° |
| 2026-04-30 22:45 | 41.98404 | -87.84908 | 2771 ft | 210 kts | 90° |
| 2026-04-30 22:45 | 41.97548 | -87.80937 | 3667 ft | 250 kts | 140° |
| 2026-04-30 22:46 | 41.94985 | -87.79690 | 4669 ft | 261 kts | 179° |
| 2026-04-30 22:47 | 41.87899 | -87.78942 | 8069 ft | 273 kts | 179° |
| 2026-04-30 22:47 | 41.84067 | -87.78434 | 9770 ft | 280 kts | 179° |
| 2026-04-30 22:48 | 41.80039 | -87.77883 | 10788 ft | 308 kts | 179° |
| 2026-04-30 22:49 | 41.73321 | -87.76938 | 12596 ft | 331 kts | 179° |
| 2026-04-30 22:49 | 41.66668 | -87.75998 | 14661 ft | 341 kts | 180° |
| 2026-04-30 22:50 | 41.57144 | -87.74662 | 17050 ft | 361 kts | 181° |
| 2026-04-30 22:51 | 41.52082 | -87.73951 | 18244 ft | 370 kts | 181° |
| 2026-04-30 22:51 | 41.46889 | -87.73226 | 19301 ft | 378 kts | 181° |
| 2026-04-30 22:52 | 41.44285 | -87.72862 | 19842 ft | 381 kts | 182° |
| 2026-04-30 22:52 | 41.38981 | -87.72519 | 20907 ft | 382 kts | 188° |
| 2026-04-30 22:53 | 41.33629 | -87.72539 | 21956 ft | 388 kts | 188° |
| 2026-04-30 22:53 | 41.28179 | -87.72570 | 22906 ft | 394 kts | 189° |
| 2026-04-30 22:53 | 41.25420 | -87.72586 | 23410 ft | 397 kts | 189° |
| 2026-04-30 22:54 | 41.19882 | -87.72548 | 24246 ft | 407 kts | 185° |
| 2026-04-30 22:55 | 41.11296 | -87.71433 | 25468 ft | 416 kts | 183° |
| 2026-04-30 22:55 | 41.05509 | -87.70635 | 26178 ft | 421 kts | 184° |
| 2026-04-30 22:56 | 40.99641 | -87.69850 | 26898 ft | 426 kts | 184° |
| 2026-04-30 22:56 | 40.90770 | -87.68650 | 27971 ft | 432 kts | 184° |
| 2026-04-30 22:57 | 40.84753 | -87.67843 | 28628 ft | 436 kts | 184° |
| 2026-04-30 22:57 | 40.78695 | -87.67028 | 29294 ft | 440 kts | 184° |
| 2026-04-30 22:58 | 40.72568 | -87.66213 | 29928 ft | 443 kts | 184° |
| 2026-04-30 22:59 | 40.63308 | -87.64979 | 30713 ft | 449 kts | 184° |
| 2026-04-30 22:59 | 40.53959 | -87.63734 | 31425 ft | 454 kts | 184° |